createdAt,value
2023-04-18T00:00:28.708Z,80.03
2023-04-18T00:05:30.580Z,80.46
2023-04-18T00:10:33.199Z,80.63
2023-04-18T00:15:35.546Z,80.77
2023-04-18T00:20:39.015Z,80.74
2023-04-18T00:25:41.142Z,80.56
2023-04-18T00:30:42.658Z,80.93
2023-04-18T00:35:44.325Z,80.83
2023-04-18T00:40:45.864Z,80.73
2023-04-18T00:45:47.435Z,80.43
2023-04-18T00:50:49.031Z,80.80
2023-04-18T00:55:50.552Z,80.61
2023-04-18T01:00:52.357Z,80.57
2023-04-18T01:05:55.613Z,80.86
2023-04-18T01:10:57.120Z,80.90
2023-04-18T01:15:59.062Z,80.63
2023-04-18T01:21:00.925Z,80.85
2023-04-18T01:26:02.384Z,80.91
2023-04-18T01:31:03.933Z,81.22
2023-04-18T01:36:05.730Z,81.08
2023-04-18T01:41:07.248Z,81.49
2023-04-18T01:46:08.872Z,81.09
2023-04-18T01:51:10.439Z,81.48
2023-04-18T01:56:11.962Z,81.47
2023-04-18T02:01:13.736Z,81.28
2023-04-18T02:06:15.238Z,81.55
2023-04-18T02:11:16.746Z,81.84
2023-04-18T02:16:18.224Z,81.69
2023-04-18T02:21:19.770Z,81.66
2023-04-18T02:26:21.282Z,81.55
2023-04-18T02:31:22.822Z,81.84
2023-04-18T02:36:28.149Z,81.82
2023-04-18T02:41:29.632Z,81.73
2023-04-18T02:46:31.245Z,81.91
2023-04-18T02:51:32.924Z,81.90
2023-04-18T02:56:39.902Z,82.24
2023-04-18T03:01:41.613Z,81.94
2023-04-18T03:06:43.264Z,82.37
2023-04-18T03:11:44.900Z,82.37
2023-04-18T03:16:46.509Z,82.18
2023-04-18T03:21:48.044Z,82.18
2023-04-18T03:26:49.543Z,82.58
2023-04-18T03:31:51.050Z,82.34
2023-04-18T03:36:52.544Z,82.83
2023-04-18T03:41:54.247Z,82.62
2023-04-18T03:46:56.057Z,82.70
2023-04-18T03:51:57.550Z,82.60
2023-04-18T03:56:59.681Z,82.81
2023-04-18T04:02:01.310Z,82.74
2023-04-18T04:07:03.250Z,82.88
2023-04-18T04:12:05.560Z,82.63
2023-04-18T04:17:07.366Z,82.77
2023-04-18T04:22:09.172Z,82.53
2023-04-18T04:27:12.620Z,82.54
2023-04-18T04:32:14.933Z,82.66
2023-04-18T04:37:18.807Z,82.42
2023-04-18T04:42:20.312Z,82.44
2023-04-18T04:47:21.900Z,82.32
2023-04-18T04:52:23.545Z,82.06
2023-04-18T04:57:25.092Z,81.67
2023-04-18T05:02:26.682Z,81.42
2023-04-18T05:07:28.465Z,81.06
2023-04-18T05:12:29.955Z,80.60
2023-04-18T05:17:31.467Z,80.43
2023-04-18T05:22:33.007Z,80.12
2023-04-18T05:27:34.544Z,79.95
2023-04-18T05:32:36.045Z,79.72
2023-04-18T05:37:37.652Z,79.41
2023-04-18T05:42:43.558Z,79.09
2023-04-18T05:47:45.121Z,79.09
2023-04-18T05:52:46.688Z,78.85
2023-04-18T05:57:48.161Z,78.66
2023-04-18T06:02:50.850Z,78.53
2023-04-18T06:07:52.612Z,78.39
2023-04-18T06:12:54.098Z,78.00
2023-04-18T06:17:55.625Z,77.94
2023-04-18T06:22:57.177Z,77.83
2023-04-18T06:27:58.664Z,77.71
2023-04-18T06:33:00.442Z,77.48
2023-04-18T06:38:02.430Z,77.38
2023-04-18T06:43:04.122Z,77.02
2023-04-18T06:48:06.374Z,76.88
2023-04-18T06:53:07.920Z,77.00
2023-04-18T06:58:10.232Z,77.18
2023-04-18T07:03:13.697Z,77.42
2023-04-18T07:08:15.667Z,77.72
2023-04-18T07:13:17.222Z,77.39
2023-04-18T07:18:30.199Z,77.74
2023-04-18T07:23:36.631Z,78.17
2023-04-18T07:28:38.131Z,78.87
2023-04-18T07:33:39.712Z,78.90
2023-04-18T07:38:41.572Z,78.79
2023-04-18T07:43:44.964Z,78.57
2023-04-18T07:48:46.544Z,77.90
2023-04-18T07:53:48.072Z,77.64
2023-04-18T07:58:49.560Z,78.13
2023-04-18T08:03:53.291Z,77.91
2023-04-18T08:08:55.032Z,77.70
2023-04-18T08:13:56.492Z,77.61
2023-04-18T08:18:57.976Z,76.96
2023-04-18T08:23:59.641Z,76.67
2023-04-18T08:29:01.173Z,74.94
2023-04-18T08:34:04.985Z,73.96
2023-04-18T08:39:07.881Z,72.48
2023-04-18T08:44:09.487Z,71.82
2023-04-18T08:49:12.025Z,71.62
2023-04-18T08:54:15.178Z,70.78
2023-04-18T08:59:18.436Z,70.42
2023-04-18T09:04:44.885Z,69.47
2023-04-18T09:09:51.932Z,69.05
2023-04-18T09:14:57.899Z,67.70
2023-04-18T09:20:01.144Z,67.32
2023-04-18T09:25:02.605Z,67.01
2023-04-18T09:30:05.590Z,67.03
2023-04-18T09:35:08.292Z,65.17
2023-04-18T09:40:19.623Z,65.04
2023-04-18T09:45:22.554Z,63.90
2023-04-18T09:50:24.162Z,65.06
2023-04-18T09:55:26.116Z,64.26
2023-04-18T10:00:32.112Z,63.19
2023-04-18T10:05:36.416Z,62.30
2023-04-18T10:10:39.062Z,61.86
2023-04-18T10:15:43.623Z,61.26
2023-04-18T10:20:47.036Z,60.49
2023-04-18T10:25:49.642Z,60.88
2023-04-18T10:30:53.376Z,60.02
2023-04-18T10:36:02.829Z,57.12
2023-04-18T10:41:22.348Z,56.63
2023-04-18T10:46:31.724Z,56.55
2023-04-18T10:51:33.700Z,55.81
2023-04-18T10:56:35.565Z,55.95
2023-04-18T11:01:38.137Z,54.96
2023-04-18T11:06:50.089Z,54.28
2023-04-18T11:12:08.419Z,54.77
2023-04-18T11:17:22.231Z,54.70
2023-04-18T11:22:23.815Z,54.49
2023-04-18T11:27:28.389Z,53.52
2023-04-18T11:32:30.065Z,53.27
2023-04-18T11:37:32.550Z,53.37
2023-04-18T11:42:35.159Z,52.18
2023-04-18T11:47:36.657Z,51.99
2023-04-18T11:52:41.187Z,50.76
2023-04-18T11:57:49.342Z,50.12
2023-04-18T12:02:51.400Z,49.93
2023-04-18T12:07:53.447Z,50.85
2023-04-18T12:12:58.709Z,51.44
2023-04-18T12:18:02.490Z,51.39
2023-04-18T12:23:04.193Z,51.26
2023-04-18T12:28:15.840Z,52.21
2023-04-18T12:33:17.336Z,51.82
2023-04-18T12:38:23.483Z,52.71
2023-04-18T12:43:25.750Z,52.90
2023-04-18T12:48:27.332Z,52.94
2023-04-18T12:53:28.896Z,52.69
2023-04-18T12:58:30.933Z,53.12
2023-04-18T13:03:33.862Z,53.03
2023-04-18T13:08:37.418Z,53.64
2023-04-18T13:13:38.974Z,53.62
2023-04-18T13:18:40.870Z,53.06
2023-04-18T13:23:42.376Z,53.33
2023-04-18T13:28:43.949Z,53.01
2023-04-18T13:33:45.424Z,53.08
2023-04-18T13:38:46.960Z,52.62
2023-04-18T13:43:48.473Z,52.54
2023-04-18T13:48:50.188Z,51.88
2023-04-18T13:53:52.240Z,51.58
2023-04-18T13:58:54.202Z,51.68
2023-04-18T14:03:55.940Z,51.11
2023-04-18T14:08:59.212Z,51.45
2023-04-18T14:14:02.099Z,50.95
2023-04-18T14:19:03.640Z,50.65
2023-04-18T14:24:06.225Z,50.76
2023-04-18T14:29:07.781Z,51.13
2023-04-18T14:34:09.853Z,51.29
2023-04-18T14:39:11.842Z,50.72
2023-04-18T14:44:13.678Z,50.94
2023-04-18T14:49:15.345Z,50.97
2023-04-18T14:54:17.096Z,51.05
2023-04-18T14:59:18.765Z,51.12
2023-04-18T15:04:21.244Z,51.32
2023-04-18T15:09:23.038Z,51.61
2023-04-18T15:14:24.765Z,51.60
2023-04-18T15:19:28.006Z,52.18
2023-04-18T15:24:29.689Z,52.57
2023-04-18T15:29:31.175Z,52.54
2023-04-18T15:34:33.226Z,52.85
2023-04-18T15:39:34.832Z,52.76
2023-04-18T15:44:36.394Z,52.87
2023-04-18T15:49:37.986Z,52.97
2023-04-18T15:54:42.917Z,53.40
2023-04-18T15:59:44.396Z,53.02
2023-04-18T16:04:46.460Z,53.08
2023-04-18T16:09:48.213Z,52.78
2023-04-18T16:14:49.705Z,52.48
2023-04-18T16:19:51.385Z,52.60
2023-04-18T16:24:52.952Z,52.96
2023-04-18T16:29:54.503Z,52.83
2023-04-18T16:34:56.034Z,53.41
2023-04-18T16:39:57.688Z,53.51
2023-04-18T16:45:01.784Z,53.94
2023-04-18T16:50:03.564Z,53.93
2023-04-18T16:55:06.704Z,54.46
2023-04-18T17:00:12.529Z,54.53
2023-04-18T17:05:14.103Z,54.65
2023-04-18T17:10:15.934Z,54.87
2023-04-18T17:15:19.712Z,54.96
2023-04-18T17:20:21.257Z,54.80
2023-04-18T17:25:22.758Z,55.17
2023-04-18T17:30:24.259Z,55.22
2023-04-18T17:35:25.930Z,55.54
2023-04-18T17:40:28.211Z,55.74
2023-04-18T17:45:29.982Z,55.78
2023-04-18T17:50:31.535Z,56.29
2023-04-18T17:55:33.076Z,56.45
2023-04-18T18:00:35.905Z,56.56
2023-04-18T18:05:37.455Z,57.00
2023-04-18T18:10:39.302Z,57.22
2023-04-18T18:15:40.796Z,57.25
2023-04-18T18:20:43.518Z,57.49
2023-04-18T18:25:45.077Z,57.67
2023-04-18T18:30:46.577Z,58.24
2023-04-18T18:35:48.085Z,58.70
2023-04-18T18:40:49.603Z,58.51
2023-04-18T18:45:51.220Z,58.29
2023-04-18T18:50:53.805Z,58.61
2023-04-18T18:55:55.521Z,58.73
2023-04-18T19:00:57.213Z,58.92
2023-04-18T19:05:58.789Z,59.09
2023-04-18T19:11:00.464Z,59.25
2023-04-18T19:16:02.044Z,59.44
2023-04-18T19:21:04.421Z,59.54
2023-04-18T19:26:05.946Z,59.57
2023-04-18T19:31:08.282Z,59.90
2023-04-18T19:36:09.883Z,60.30
2023-04-18T19:41:11.440Z,60.41
2023-04-18T19:46:13.021Z,60.72
2023-04-18T19:51:14.672Z,60.90
2023-04-18T19:56:16.742Z,61.20
2023-04-18T20:01:20.070Z,61.45
2023-04-18T20:06:21.944Z,61.90
2023-04-18T20:11:23.503Z,61.88
2023-04-18T20:16:25.082Z,62.08
2023-04-18T20:21:27.340Z,62.22
2023-04-18T20:26:28.872Z,61.85
2023-04-18T20:31:30.427Z,61.88
2023-04-18T20:36:32.002Z,61.88
2023-04-18T20:41:34.772Z,61.79
2023-04-18T20:46:36.471Z,61.35
2023-04-18T20:51:38.376Z,61.08
2023-04-18T20:56:39.951Z,60.97
2023-04-18T21:01:42.058Z,61.10
2023-04-18T21:06:43.797Z,61.01
2023-04-18T21:11:45.531Z,60.82
2023-04-18T21:16:47.032Z,60.74
2023-04-18T21:21:48.560Z,60.61
2023-04-18T21:26:50.264Z,60.25
2023-04-18T21:31:52.466Z,60.07
2023-04-18T21:36:54.240Z,59.87
2023-04-18T21:41:55.707Z,60.04
2023-04-18T21:46:57.398Z,60.07
2023-04-18T21:51:59.035Z,60.11
2023-04-18T21:57:00.498Z,60.33
2023-04-18T22:02:05.564Z,60.31
2023-04-18T22:07:07.294Z,60.46
2023-04-18T22:12:08.845Z,60.35
2023-04-18T22:17:10.393Z,60.39
2023-04-18T22:22:11.931Z,60.56
2023-04-18T22:27:13.550Z,60.52
2023-04-18T22:32:15.026Z,60.55
2023-04-18T22:37:16.570Z,60.67
2023-04-18T22:42:18.112Z,61.05
2023-04-18T22:47:19.650Z,61.48
2023-04-18T22:52:24.764Z,61.83
2023-04-18T22:57:26.532Z,63.86
2023-04-18T23:02:28.257Z,64.67
2023-04-18T23:07:29.847Z,65.20
2023-04-18T23:12:31.651Z,66.82
2023-04-18T23:17:34.935Z,66.58
2023-04-18T23:22:38.527Z,66.06
2023-04-18T23:27:40.283Z,66.94
2023-04-18T23:32:42.035Z,66.70
2023-04-18T23:37:43.606Z,67.04
2023-04-18T23:42:45.169Z,66.79
2023-04-18T23:47:46.889Z,67.56
2023-04-18T23:52:48.491Z,67.30
2023-04-18T23:57:50.004Z,67.66
